sensor_id;sensor_type;location;lat;lon;timestamp;temperature;humidity
23597;DHT22;40226;50.874;4.394;2023-07-02T00:02:21;17.10;99.90
23597;DHT22;40226;50.874;4.394;2023-07-02T00:04:47;17.00;99.90
23597;DHT22;40226;50.874;4.394;2023-07-02T00:07:13;17.10;99.90
23597;DHT22;40226;50.874;4.394;2023-07-02T00:09:40;17.10;99.90
23597;DHT22;40226;50.874;4.394;2023-07-02T00:12:06;16.90;99.90
23597;DHT22;40226;50.874;4.394;2023-07-02T00:14:32;16.80;99.90
23597;DHT22;40226;50.874;4.394;2023-07-02T00:16:58;16.80;99.90
23597;DHT22;40226;50.874;4.394;2023-07-02T00:19:23;16.90;99.90
23597;DHT22;40226;50.874;4.394;2023-07-02T00:21:49;16.80;99.90
23597;DHT22;40226;50.874;4.394;2023-07-02T00:24:14;16.80;99.90
23597;DHT22;40226;50.874;4.394;2023-07-02T00:26:42;16.80;99.90
23597;DHT22;40226;50.874;4.394;2023-07-02T00:29:08;16.90;99.90
23597;DHT22;40226;50.874;4.394;2023-07-02T00:31:35;16.80;99.90
23597;DHT22;40226;50.874;4.394;2023-07-02T00:34:01;16.90;99.90
23597;DHT22;40226;50.874;4.394;2023-07-02T00:36:31;16.90;99.90
23597;DHT22;40226;50.874;4.394;2023-07-02T00:38:57;16.90;99.90
23597;DHT22;40226;50.874;4.394;2023-07-02T00:41:24;17.00;99.90
23597;DHT22;40226;50.874;4.394;2023-07-02T00:43:50;17.00;99.90
23597;DHT22;40226;50.874;4.394;2023-07-02T00:46:21;16.90;99.90
23597;DHT22;40226;50.874;4.394;2023-07-02T00:48:48;16.90;99.90
23597;DHT22;40226;50.874;4.394;2023-07-02T00:51:15;17.00;99.90
23597;DHT22;40226;50.874;4.394;2023-07-02T00:53:43;17.10;99.90
23597;DHT22;40226;50.874;4.394;2023-07-02T00:56:09;16.90;99.90
23597;DHT22;40226;50.874;4.394;2023-07-02T00:58:38;16.90;99.90
23597;DHT22;40226;50.874;4.394;2023-07-02T01:01:04;16.70;99.90
23597;DHT22;40226;50.874;4.394;2023-07-02T01:03:30;16.90;99.90
23597;DHT22;40226;50.874;4.394;2023-07-02T01:05:58;16.80;99.90
23597;DHT22;40226;50.874;4.394;2023-07-02T01:08:24;16.80;99.90
23597;DHT22;40226;50.874;4.394;2023-07-02T01:10:50;16.70;99.90
23597;DHT22;40226;50.874;4.394;2023-07-02T01:13:19;16.60;99.90
23597;DHT22;40226;50.874;4.394;2023-07-02T01:15:47;16.70;99.90
23597;DHT22;40226;50.874;4.394;2023-07-02T01:18:14;16.80;99.90
23597;DHT22;40226;50.874;4.394;2023-07-02T01:20:41;16.70;99.90
23597;DHT22;40226;50.874;4.394;2023-07-02T01:23:07;16.70;99.90
23597;DHT22;40226;50.874;4.394;2023-07-02T01:25:35;16.70;99.90
23597;DHT22;40226;50.874;4.394;2023-07-02T01:28:02;16.70;99.90
23597;DHT22;40226;50.874;4.394;2023-07-02T01:30:27;16.70;99.90
23597;DHT22;40226;50.874;4.394;2023-07-02T01:32:53;16.70;99.90
23597;DHT22;40226;50.874;4.394;2023-07-02T01:35:19;16.80;99.90
23597;DHT22;40226;50.874;4.394;2023-07-02T01:37:44;16.70;99.90
23597;DHT22;40226;50.874;4.394;2023-07-02T01:40:10;16.60;99.90
23597;DHT22;40226;50.874;4.394;2023-07-02T01:42:36;16.70;99.90
23597;DHT22;40226;50.874;4.394;2023-07-02T01:45:02;16.60;99.90
23597;DHT22;40226;50.874;4.394;2023-07-02T01:47:27;16.60;99.90
23597;DHT22;40226;50.874;4.394;2023-07-02T01:49:55;16.80;99.90
23597;DHT22;40226;50.874;4.394;2023-07-02T01:52:21;16.70;99.90
23597;DHT22;40226;50.874;4.394;2023-07-02T01:54:46;16.70;99.90
23597;DHT22;40226;50.874;4.394;2023-07-02T01:57:13;16.80;99.90
23597;DHT22;40226;50.874;4.394;2023-07-02T01:59:39;16.70;99.90
23597;DHT22;40226;50.874;4.394;2023-07-02T02:02:04;16.70;99.90
23597;DHT22;40226;50.874;4.394;2023-07-02T02:04:30;16.70;99.90
23597;DHT22;40226;50.874;4.394;2023-07-02T02:06:56;16.60;99.90
23597;DHT22;40226;50.874;4.394;2023-07-02T02:09:21;16.60;99.90
23597;DHT22;40226;50.874;4.394;2023-07-02T02:11:49;16.50;99.90
23597;DHT22;40226;50.874;4.394;2023-07-02T02:14:15;16.40;99.90
23597;DHT22;40226;50.874;4.394;2023-07-02T02:16:42;16.50;99.90
23597;DHT22;40226;50.874;4.394;2023-07-02T02:19:10;16.60;99.90
23597;DHT22;40226;50.874;4.394;2023-07-02T02:21:42;16.50;99.90
23597;DHT22;40226;50.874;4.394;2023-07-02T02:24:10;16.50;99.90
23597;DHT22;40226;50.874;4.394;2023-07-02T02:26:36;16.40;99.90
23597;DHT22;40226;50.874;4.394;2023-07-02T02:29:16;16.40;99.90
23597;DHT22;40226;50.874;4.394;2023-07-02T02:31:43;16.50;99.90
23597;DHT22;40226;50.874;4.394;2023-07-02T02:34:09;16.40;99.90
23597;DHT22;40226;50.874;4.394;2023-07-02T02:36:34;16.60;99.90
23597;DHT22;40226;50.874;4.394;2023-07-02T02:39:00;16.50;99.90
23597;DHT22;40226;50.874;4.394;2023-07-02T02:41:25;16.40;99.90
23597;DHT22;40226;50.874;4.394;2023-07-02T02:43:51;16.30;99.90
23597;DHT22;40226;50.874;4.394;2023-07-02T02:46:23;16.30;99.90
23597;DHT22;40226;50.874;4.394;2023-07-02T02:48:49;16.40;99.90
23597;DHT22;40226;50.874;4.394;2023-07-02T02:51:15;16.40;99.90
23597;DHT22;40226;50.874;4.394;2023-07-02T02:53:43;16.30;99.90
23597;DHT22;40226;50.874;4.394;2023-07-02T02:56:09;16.40;99.90
23597;DHT22;40226;50.874;4.394;2023-07-02T02:58:34;16.40;99.90
23597;DHT22;40226;50.874;4.394;2023-07-02T03:01:00;16.50;99.90
23597;DHT22;40226;50.874;4.394;2023-07-02T03:03:25;16.40;99.90
23597;DHT22;40226;50.874;4.394;2023-07-02T03:05:51;16.40;99.90
23597;DHT22;40226;50.874;4.394;2023-07-02T03:08:17;16.40;99.90
23597;DHT22;40226;50.874;4.394;2023-07-02T03:10:43;16.30;99.90
23597;DHT22;40226;50.874;4.394;2023-07-02T03:13:08;16.30;99.90
23597;DHT22;40226;50.874;4.394;2023-07-02T03:15:34;16.30;99.90
23597;DHT22;40226;50.874;4.394;2023-07-02T03:17:59;16.30;99.90
23597;DHT22;40226;50.874;4.394;2023-07-02T03:20:25;16.40;99.90
23597;DHT22;40226;50.874;4.394;2023-07-02T03:22:50;16.20;99.90
23597;DHT22;40226;50.874;4.394;2023-07-02T03:25:16;16.10;99.90
23597;DHT22;40226;50.874;4.394;2023-07-02T03:27:41;16.10;99.90
23597;DHT22;40226;50.874;4.394;2023-07-02T03:30:07;16.20;99.90
23597;DHT22;40226;50.874;4.394;2023-07-02T03:32:35;16.20;99.90
23597;DHT22;40226;50.874;4.394;2023-07-02T03:35:00;16.10;99.90
23597;DHT22;40226;50.874;4.394;2023-07-02T03:37:26;16.20;99.90
23597;DHT22;40226;50.874;4.394;2023-07-02T03:39:52;16.20;99.90
23597;DHT22;40226;50.874;4.394;2023-07-02T03:42:17;16.10;99.90
23597;DHT22;40226;50.874;4.394;2023-07-02T03:44:43;16.20;99.90
23597;DHT22;40226;50.874;4.394;2023-07-02T03:47:08;16.20;99.90
23597;DHT22;40226;50.874;4.394;2023-07-02T03:49:34;16.30;99.90
23597;DHT22;40226;50.874;4.394;2023-07-02T03:52:00;16.00;99.90
23597;DHT22;40226;50.874;4.394;2023-07-02T03:54:25;16.00;99.90
23597;DHT22;40226;50.874;4.394;2023-07-02T03:56:51;16.00;99.90
23597;DHT22;40226;50.874;4.394;2023-07-02T03:59:16;15.90;99.90
23597;DHT22;40226;50.874;4.394;2023-07-02T04:01:42;15.90;99.90
23597;DHT22;40226;50.874;4.394;2023-07-02T04:04:09;15.80;99.90
23597;DHT22;40226;50.874;4.394;2023-07-02T04:06:34;15.60;99.90
23597;DHT22;40226;50.874;4.394;2023-07-02T04:09:00;15.60;99.90
23597;DHT22;40226;50.874;4.394;2023-07-02T04:11:25;15.50;99.90
23597;DHT22;40226;50.874;4.394;2023-07-02T04:13:51;15.40;99.90
23597;DHT22;40226;50.874;4.394;2023-07-02T04:16:17;15.40;99.90
23597;DHT22;40226;50.874;4.394;2023-07-02T04:18:43;15.50;99.90
23597;DHT22;40226;50.874;4.394;2023-07-02T04:21:15;15.40;99.90
23597;DHT22;40226;50.874;4.394;2023-07-02T04:23:41;15.50;99.90
23597;DHT22;40226;50.874;4.394;2023-07-02T04:26:07;15.50;99.90
23597;DHT22;40226;50.874;4.394;2023-07-02T04:28:32;15.70;99.90
23597;DHT22;40226;50.874;4.394;2023-07-02T04:30:58;15.60;99.90
23597;DHT22;40226;50.874;4.394;2023-07-02T04:33:23;15.60;99.90
23597;DHT22;40226;50.874;4.394;2023-07-02T04:35:49;15.60;99.90
23597;DHT22;40226;50.874;4.394;2023-07-02T04:38:16;15.50;99.90
23597;DHT22;40226;50.874;4.394;2023-07-02T04:40:42;15.50;99.90
23597;DHT22;40226;50.874;4.394;2023-07-02T04:43:10;15.60;99.90
23597;DHT22;40226;50.874;4.394;2023-07-02T04:45:35;15.70;99.90
23597;DHT22;40226;50.874;4.394;2023-07-02T04:48:06;15.70;99.90
23597;DHT22;40226;50.874;4.394;2023-07-02T04:50:31;15.70;99.90
23597;DHT22;40226;50.874;4.394;2023-07-02T04:52:57;15.70;99.90
23597;DHT22;40226;50.874;4.394;2023-07-02T04:55:23;15.80;99.90
23597;DHT22;40226;50.874;4.394;2023-07-02T04:57:48;15.90;99.90
23597;DHT22;40226;50.874;4.394;2023-07-02T05:00:14;15.70;99.90
23597;DHT22;40226;50.874;4.394;2023-07-02T05:02:40;15.60;99.90
23597;DHT22;40226;50.874;4.394;2023-07-02T05:05:06;15.60;99.90
23597;DHT22;40226;50.874;4.394;2023-07-02T05:07:32;15.80;99.90
23597;DHT22;40226;50.874;4.394;2023-07-02T05:09:58;16.00;99.90
23597;DHT22;40226;50.874;4.394;2023-07-02T05:12:24;15.90;99.90
23597;DHT22;40226;50.874;4.394;2023-07-02T05:14:49;15.90;99.90
23597;DHT22;40226;50.874;4.394;2023-07-02T05:17:15;15.80;99.90
23597;DHT22;40226;50.874;4.394;2023-07-02T05:19:41;15.70;99.90
23597;DHT22;40226;50.874;4.394;2023-07-02T05:22:07;15.70;99.90
23597;DHT22;40226;50.874;4.394;2023-07-02T05:24:33;15.80;99.90
23597;DHT22;40226;50.874;4.394;2023-07-02T05:26:59;15.70;99.90
23597;DHT22;40226;50.874;4.394;2023-07-02T05:29:24;15.70;99.90
23597;DHT22;40226;50.874;4.394;2023-07-02T05:31:50;16.00;99.90
23597;DHT22;40226;50.874;4.394;2023-07-02T05:34:16;16.20;99.90
23597;DHT22;40226;50.874;4.394;2023-07-02T05:36:41;16.20;99.90
23597;DHT22;40226;50.874;4.394;2023-07-02T05:39:07;16.30;99.90
23597;DHT22;40226;50.874;4.394;2023-07-02T05:41:32;16.30;99.90
23597;DHT22;40226;50.874;4.394;2023-07-02T05:43:58;16.30;99.90
23597;DHT22;40226;50.874;4.394;2023-07-02T05:46:24;16.20;99.90
23597;DHT22;40226;50.874;4.394;2023-07-02T05:48:49;16.00;99.90
23597;DHT22;40226;50.874;4.394;2023-07-02T05:51:23;16.00;99.90
23597;DHT22;40226;50.874;4.394;2023-07-02T05:53:49;16.00;99.90
23597;DHT22;40226;50.874;4.394;2023-07-02T05:56:15;15.90;99.90
23597;DHT22;40226;50.874;4.394;2023-07-02T05:58:40;16.20;99.90
23597;DHT22;40226;50.874;4.394;2023-07-02T06:01:06;16.30;99.90
23597;DHT22;40226;50.874;4.394;2023-07-02T06:03:32;16.40;99.90
23597;DHT22;40226;50.874;4.394;2023-07-02T06:05:57;16.50;99.90
23597;DHT22;40226;50.874;4.394;2023-07-02T06:08:23;16.70;99.90
23597;DHT22;40226;50.874;4.394;2023-07-02T06:10:49;16.60;99.90
23597;DHT22;40226;50.874;4.394;2023-07-02T06:13:16;16.70;99.90
23597;DHT22;40226;50.874;4.394;2023-07-02T06:15:41;16.70;99.90
23597;DHT22;40226;50.874;4.394;2023-07-02T06:18:07;16.90;99.90
23597;DHT22;40226;50.874;4.394;2023-07-02T06:20:32;16.90;99.90
23597;DHT22;40226;50.874;4.394;2023-07-02T06:22:58;17.10;99.90
23597;DHT22;40226;50.874;4.394;2023-07-02T06:25:24;17.20;99.90
23597;DHT22;40226;50.874;4.394;2023-07-02T06:27:49;17.40;99.90
23597;DHT22;40226;50.874;4.394;2023-07-02T06:30:15;17.30;99.90
23597;DHT22;40226;50.874;4.394;2023-07-02T06:32:41;17.30;99.90
23597;DHT22;40226;50.874;4.394;2023-07-02T06:35:07;17.30;99.90
23597;DHT22;40226;50.874;4.394;2023-07-02T06:37:33;17.60;99.90
23597;DHT22;40226;50.874;4.394;2023-07-02T06:39:59;17.50;99.90
23597;DHT22;40226;50.874;4.394;2023-07-02T06:42:25;17.70;99.90
23597;DHT22;40226;50.874;4.394;2023-07-02T06:44:51;17.60;99.90
23597;DHT22;40226;50.874;4.394;2023-07-02T06:47:17;17.70;99.90
23597;DHT22;40226;50.874;4.394;2023-07-02T06:49:43;18.00;99.90
23597;DHT22;40226;50.874;4.394;2023-07-02T06:52:08;18.00;99.90
23597;DHT22;40226;50.874;4.394;2023-07-02T06:54:34;18.00;99.90
23597;DHT22;40226;50.874;4.394;2023-07-02T06:57:00;18.00;98.50
23597;DHT22;40226;50.874;4.394;2023-07-02T06:59:25;18.30;92.20
23597;DHT22;40226;50.874;4.394;2023-07-02T07:01:52;18.20;91.40
23597;DHT22;40226;50.874;4.394;2023-07-02T07:04:17;18.50;79.30
23597;DHT22;40226;50.874;4.394;2023-07-02T07:06:43;18.30;75.70
23597;DHT22;40226;50.874;4.394;2023-07-02T07:09:09;18.50;42.20
23597;DHT22;40226;50.874;4.394;2023-07-02T07:11:35;18.80;22.50
23597;DHT22;40226;50.874;4.394;2023-07-02T07:14:00;19.00;1.00
23597;DHT22;40226;50.874;4.394;2023-07-02T07:16:28;19.10;1.00
23597;DHT22;40226;50.874;4.394;2023-07-02T07:18:55;19.30;1.00
23597;DHT22;40226;50.874;4.394;2023-07-02T07:21:20;19.30;1.00
23597;DHT22;40226;50.874;4.394;2023-07-02T07:23:46;19.40;1.00
23597;DHT22;40226;50.874;4.394;2023-07-02T07:26:12;19.70;1.00
23597;DHT22;40226;50.874;4.394;2023-07-02T07:28:37;20.20;1.00
23597;DHT22;40226;50.874;4.394;2023-07-02T07:31:05;20.10;1.00
23597;DHT22;40226;50.874;4.394;2023-07-02T07:33:32;20.00;1.00
23597;DHT22;40226;50.874;4.394;2023-07-02T07:35:58;20.30;1.00
23597;DHT22;40226;50.874;4.394;2023-07-02T07:38:25;20.50;1.00
23597;DHT22;40226;50.874;4.394;2023-07-02T07:40:51;20.60;1.00
23597;DHT22;40226;50.874;4.394;2023-07-02T07:43:17;20.80;99.90
23597;DHT22;40226;50.874;4.394;2023-07-02T07:45:42;21.00;99.90
23597;DHT22;40226;50.874;4.394;2023-07-02T07:48:08;21.10;99.90
23597;DHT22;40226;50.874;4.394;2023-07-02T07:50:34;21.00;99.90
23597;DHT22;40226;50.874;4.394;2023-07-02T07:53:01;21.00;99.90
23597;DHT22;40226;50.874;4.394;2023-07-02T07:55:27;21.10;99.90
23597;DHT22;40226;50.874;4.394;2023-07-02T07:57:53;21.20;99.90
23597;DHT22;40226;50.874;4.394;2023-07-02T08:00:19;21.00;99.90
23597;DHT22;40226;50.874;4.394;2023-07-02T08:02:47;21.10;99.90
23597;DHT22;40226;50.874;4.394;2023-07-02T08:05:13;21.40;99.90
23597;DHT22;40226;50.874;4.394;2023-07-02T08:07:39;21.50;83.60
23597;DHT22;40226;50.874;4.394;2023-07-02T08:10:06;21.60;27.90
23597;DHT22;40226;50.874;4.394;2023-07-02T08:12:34;21.70;1.00
23597;DHT22;40226;50.874;4.394;2023-07-02T08:15:00;21.50;1.00
23597;DHT22;40226;50.874;4.394;2023-07-02T08:17:26;21.50;1.00
23597;DHT22;40226;50.874;4.394;2023-07-02T08:19:51;21.80;1.00
23597;DHT22;40226;50.874;4.394;2023-07-02T08:22:17;21.80;1.00
23597;DHT22;40226;50.874;4.394;2023-07-02T08:24:43;21.50;1.00
23597;DHT22;40226;50.874;4.394;2023-07-02T08:27:09;21.10;99.90
23597;DHT22;40226;50.874;4.394;2023-07-02T08:29:35;20.70;99.90
23597;DHT22;40226;50.874;4.394;2023-07-02T08:32:01;20.80;99.90
23597;DHT22;40226;50.874;4.394;2023-07-02T08:34:27;21.10;99.90
23597;DHT22;40226;50.874;4.394;2023-07-02T08:36:52;21.10;99.90
23597;DHT22;40226;50.874;4.394;2023-07-02T08:39:18;21.20;99.90
23597;DHT22;40226;50.874;4.394;2023-07-02T08:41:48;21.40;99.90
23597;DHT22;40226;50.874;4.394;2023-07-02T08:44:17;21.10;99.90
23597;DHT22;40226;50.874;4.394;2023-07-02T08:46:44;21.00;99.90
23597;DHT22;40226;50.874;4.394;2023-07-02T08:49:10;20.90;99.90
23597;DHT22;40226;50.874;4.394;2023-07-02T08:51:36;20.80;99.90
23597;DHT22;40226;50.874;4.394;2023-07-02T08:54:02;20.60;99.90
23597;DHT22;40226;50.874;4.394;2023-07-02T08:56:29;20.20;1.00
23597;DHT22;40226;50.874;4.394;2023-07-02T08:58:54;20.20;1.00
23597;DHT22;40226;50.874;4.394;2023-07-02T09:01:20;20.40;1.00
23597;DHT22;40226;50.874;4.394;2023-07-02T09:03:46;20.40;1.00
23597;DHT22;40226;50.874;4.394;2023-07-02T09:06:12;20.50;1.00
23597;DHT22;40226;50.874;4.394;2023-07-02T09:08:38;20.20;1.00
23597;DHT22;40226;50.874;4.394;2023-07-02T09:11:13;20.10;1.00
23597;DHT22;40226;50.874;4.394;2023-07-02T09:13:48;19.90;1.00
23597;DHT22;40226;50.874;4.394;2023-07-02T09:16:29;19.90;1.00
23597;DHT22;40226;50.874;4.394;2023-07-02T09:19:02;19.80;1.00
23597;DHT22;40226;50.874;4.394;2023-07-02T09:21:44;20.20;1.00
23597;DHT22;40226;50.874;4.394;2023-07-02T09:24:17;20.40;1.00
23597;DHT22;40226;50.874;4.394;2023-07-02T09:26:58;20.40;99.90
23597;DHT22;40226;50.874;4.394;2023-07-02T09:31:54;20.50;99.90
23597;DHT22;40226;50.874;4.394;2023-07-02T09:34:26;20.40;99.90
23597;DHT22;40226;50.874;4.394;2023-07-02T09:36:53;20.50;1.00
23597;DHT22;40226;50.874;4.394;2023-07-02T09:39:27;20.50;1.00
23597;DHT22;40226;50.874;4.394;2023-07-02T09:41:55;20.70;1.00
23597;DHT22;40226;50.874;4.394;2023-07-02T09:44:22;21.00;1.00
23597;DHT22;40226;50.874;4.394;2023-07-02T09:46:53;21.00;1.00
23597;DHT22;40226;50.874;4.394;2023-07-02T09:49:21;20.80;1.00
23597;DHT22;40226;50.874;4.394;2023-07-02T09:51:47;20.50;99.90
23597;DHT22;40226;50.874;4.394;2023-07-02T09:54:13;20.50;99.90
23597;DHT22;40226;50.874;4.394;2023-07-02T09:56:40;20.30;99.90
23597;DHT22;40226;50.874;4.394;2023-07-02T09:59:05;20.20;99.90
23597;DHT22;40226;50.874;4.394;2023-07-02T10:01:31;20.50;99.90
23597;DHT22;40226;50.874;4.394;2023-07-02T10:03:57;20.70;1.00
23597;DHT22;40226;50.874;4.394;2023-07-02T10:06:22;21.00;1.00
23597;DHT22;40226;50.874;4.394;2023-07-02T10:08:55;20.90;99.90
23597;DHT22;40226;50.874;4.394;2023-07-02T10:11:33;20.80;99.90
23597;DHT22;40226;50.874;4.394;2023-07-02T10:13:59;20.50;99.90
23597;DHT22;40226;50.874;4.394;2023-07-02T10:16:25;21.10;99.90
23597;DHT22;40226;50.874;4.394;2023-07-02T10:18:53;21.70;99.90
23597;DHT22;40226;50.874;4.394;2023-07-02T10:21:19;21.90;99.90
23597;DHT22;40226;50.874;4.394;2023-07-02T10:23:45;22.00;1.00
23597;DHT22;40226;50.874;4.394;2023-07-02T10:26:14;22.20;99.90
23597;DHT22;40226;50.874;4.394;2023-07-02T10:28:41;21.90;99.90
23597;DHT22;40226;50.874;4.394;2023-07-02T10:31:19;22.10;99.60
23597;DHT22;40226;50.874;4.394;2023-07-02T10:33:44;22.20;99.90
23597;DHT22;40226;50.874;4.394;2023-07-02T10:36:18;21.90;1.00
23597;DHT22;40226;50.874;4.394;2023-07-02T10:38:45;21.60;99.90
23597;DHT22;40226;50.874;4.394;2023-07-02T10:41:12;21.30;99.90
23597;DHT22;40226;50.874;4.394;2023-07-02T10:43:38;21.20;1.00
23597;DHT22;40226;50.874;4.394;2023-07-02T10:46:03;20.90;1.00
23597;DHT22;40226;50.874;4.394;2023-07-02T10:48:30;20.80;1.00
23597;DHT22;40226;50.874;4.394;2023-07-02T10:50:56;20.70;2.50
23597;DHT22;40226;50.874;4.394;2023-07-02T10:53:22;21.10;1.00
23597;DHT22;40226;50.874;4.394;2023-07-02T10:55:54;21.40;99.90
23597;DHT22;40226;50.874;4.394;2023-07-02T10:58:21;21.70;1.00
23597;DHT22;40226;50.874;4.394;2023-07-02T11:00:47;22.10;99.90
23597;DHT22;40226;50.874;4.394;2023-07-02T11:03:20;22.30;99.90
23597;DHT22;40226;50.874;4.394;2023-07-02T11:05:47;22.30;99.90
23597;DHT22;40226;50.874;4.394;2023-07-02T11:08:13;22.20;99.90
23597;DHT22;40226;50.874;4.394;2023-07-02T11:10:39;22.20;1.00
23597;DHT22;40226;50.874;4.394;2023-07-02T11:13:16;21.70;99.90
23597;DHT22;40226;50.874;4.394;2023-07-02T11:15:42;21.60;46.50
23597;DHT22;40226;50.874;4.394;2023-07-02T11:18:12;21.80;1.00
23597;DHT22;40226;50.874;4.394;2023-07-02T11:20:39;21.80;99.90
23597;DHT22;40226;50.874;4.394;2023-07-02T11:23:17;21.70;99.90
23597;DHT22;40226;50.874;4.394;2023-07-02T11:25:42;21.50;1.00
23597;DHT22;40226;50.874;4.394;2023-07-02T11:28:18;21.60;1.00
23597;DHT22;40226;50.874;4.394;2023-07-02T11:30:47;21.50;1.00
23597;DHT22;40226;50.874;4.394;2023-07-02T11:33:13;21.50;99.90
23597;DHT22;40226;50.874;4.394;2023-07-02T11:35:39;21.90;99.90
23597;DHT22;40226;50.874;4.394;2023-07-02T11:38:05;22.30;12.10
23597;DHT22;40226;50.874;4.394;2023-07-02T11:40:31;22.60;99.90
23597;DHT22;40226;50.874;4.394;2023-07-02T11:42:57;23.10;48.60
23597;DHT22;40226;50.874;4.394;2023-07-02T11:45:22;23.90;99.90
23597;DHT22;40226;50.874;4.394;2023-07-02T11:47:48;23.20;99.90
23597;DHT22;40226;50.874;4.394;2023-07-02T11:50:13;23.00;99.90
23597;DHT22;40226;50.874;4.394;2023-07-02T11:52:39;22.50;1.00
23597;DHT22;40226;50.874;4.394;2023-07-02T11:55:05;21.60;99.90
23597;DHT22;40226;50.874;4.394;2023-07-02T11:57:31;21.50;1.00
23597;DHT22;40226;50.874;4.394;2023-07-02T11:59:56;21.30;99.90
23597;DHT22;40226;50.874;4.394;2023-07-02T12:02:22;21.80;1.00
23597;DHT22;40226;50.874;4.394;2023-07-02T12:04:47;22.20;99.90
23597;DHT22;40226;50.874;4.394;2023-07-02T12:07:13;22.80;1.00
23597;DHT22;40226;50.874;4.394;2023-07-02T12:09:39;23.70;1.00
23597;DHT22;40226;50.874;4.394;2023-07-02T12:12:05;25.30;1.00
23597;DHT22;40226;50.874;4.394;2023-07-02T12:14:31;25.30;1.00
23597;DHT22;40226;50.874;4.394;2023-07-02T12:16:57;25.40;1.00
23597;DHT22;40226;50.874;4.394;2023-07-02T12:19:22;26.10;99.90
23597;DHT22;40226;50.874;4.394;2023-07-02T12:21:48;26.40;99.90
23597;DHT22;40226;50.874;4.394;2023-07-02T12:24:14;25.10;99.90
23597;DHT22;40226;50.874;4.394;2023-07-02T12:26:39;24.20;99.90
23597;DHT22;40226;50.874;4.394;2023-07-02T12:29:05;24.40;1.00
23597;DHT22;40226;50.874;4.394;2023-07-02T12:31:31;24.40;1.00
23597;DHT22;40226;50.874;4.394;2023-07-02T12:33:57;25.00;1.00
23597;DHT22;40226;50.874;4.394;2023-07-02T12:36:23;25.40;99.90
23597;DHT22;40226;50.874;4.394;2023-07-02T12:38:49;25.40;99.90
23597;DHT22;40226;50.874;4.394;2023-07-02T12:41:14;26.60;99.90
23597;DHT22;40226;50.874;4.394;2023-07-02T12:43:40;26.80;41.20
23597;DHT22;40226;50.874;4.394;2023-07-02T12:46:06;26.30;1.00
23597;DHT22;40226;50.874;4.394;2023-07-02T12:48:32;25.80;1.00
23597;DHT22;40226;50.874;4.394;2023-07-02T12:50:59;24.80;14.10
23597;DHT22;40226;50.874;4.394;2023-07-02T12:53:26;24.80;96.50
23597;DHT22;40226;50.874;4.394;2023-07-02T12:55:52;24.30;97.70
23597;DHT22;40226;50.874;4.394;2023-07-02T12:58:17;24.50;99.90
23597;DHT22;40226;50.874;4.394;2023-07-02T13:00:43;25.00;99.90
23597;DHT22;40226;50.874;4.394;2023-07-02T13:03:12;25.30;99.90
23597;DHT22;40226;50.874;4.394;2023-07-02T13:05:38;25.70;1.00
23597;DHT22;40226;50.874;4.394;2023-07-02T13:08:04;26.50;1.00
23597;DHT22;40226;50.874;4.394;2023-07-02T13:10:30;26.80;1.00
23597;DHT22;40226;50.874;4.394;2023-07-02T13:12:56;26.50;1.00
23597;DHT22;40226;50.874;4.394;2023-07-02T13:15:22;27.10;1.00
23597;DHT22;40226;50.874;4.394;2023-07-02T13:17:48;27.40;1.00
23597;DHT22;40226;50.874;4.394;2023-07-02T13:20:13;26.70;1.00
23597;DHT22;40226;50.874;4.394;2023-07-02T13:22:39;26.70;1.00
23597;DHT22;40226;50.874;4.394;2023-07-02T13:25:06;26.50;1.00
23597;DHT22;40226;50.874;4.394;2023-07-02T13:27:38;27.30;1.00
23597;DHT22;40226;50.874;4.394;2023-07-02T13:30:03;27.70;1.00
23597;DHT22;40226;50.874;4.394;2023-07-02T13:32:30;26.50;1.00
23597;DHT22;40226;50.874;4.394;2023-07-02T13:34:55;26.60;1.00
23597;DHT22;40226;50.874;4.394;2023-07-02T13:37:21;27.10;1.00
23597;DHT22;40226;50.874;4.394;2023-07-02T13:39:47;27.40;1.00
23597;DHT22;40226;50.874;4.394;2023-07-02T13:42:13;27.40;1.00
23597;DHT22;40226;50.874;4.394;2023-07-02T13:44:39;27.70;1.00
23597;DHT22;40226;50.874;4.394;2023-07-02T13:47:11;27.50;99.90
23597;DHT22;40226;50.874;4.394;2023-07-02T13:49:36;27.10;99.90
23597;DHT22;40226;50.874;4.394;2023-07-02T13:52:02;25.60;99.90
23597;DHT22;40226;50.874;4.394;2023-07-02T13:54:28;25.20;1.00
23597;DHT22;40226;50.874;4.394;2023-07-02T13:56:56;24.50;1.00
23597;DHT22;40226;50.874;4.394;2023-07-02T13:59:21;24.70;1.00
23597;DHT22;40226;50.874;4.394;2023-07-02T14:01:48;26.20;1.00
23597;DHT22;40226;50.874;4.394;2023-07-02T14:04:15;25.70;1.00
23597;DHT22;40226;50.874;4.394;2023-07-02T14:06:41;25.90;1.00
23597;DHT22;40226;50.874;4.394;2023-07-02T14:09:07;26.20;1.00
23597;DHT22;40226;50.874;4.394;2023-07-02T14:11:34;26.70;1.00
23597;DHT22;40226;50.874;4.394;2023-07-02T14:14:00;27.20;1.00
23597;DHT22;40226;50.874;4.394;2023-07-02T14:16:26;28.50;1.00
23597;DHT22;40226;50.874;4.394;2023-07-02T14:18:51;27.40;99.90
23597;DHT22;40226;50.874;4.394;2023-07-02T14:21:17;27.70;99.90
23597;DHT22;40226;50.874;4.394;2023-07-02T14:23:43;28.50;99.90
23597;DHT22;40226;50.874;4.394;2023-07-02T14:26:09;28.00;99.90
23597;DHT22;40226;50.874;4.394;2023-07-02T14:28:34;28.00;99.90
23597;DHT22;40226;50.874;4.394;2023-07-02T14:31:04;29.00;99.90
23597;DHT22;40226;50.874;4.394;2023-07-02T14:33:31;29.70;99.90
23597;DHT22;40226;50.874;4.394;2023-07-02T14:35:58;29.20;99.90
23597;DHT22;40226;50.874;4.394;2023-07-02T14:38:24;27.70;99.90
23597;DHT22;40226;50.874;4.394;2023-07-02T14:40:53;26.40;99.90
23597;DHT22;40226;50.874;4.394;2023-07-02T14:43:20;26.40;99.90
23597;DHT22;40226;50.874;4.394;2023-07-02T14:45:48;25.50;1.00
23597;DHT22;40226;50.874;4.394;2023-07-02T14:48:15;26.10;1.00
23597;DHT22;40226;50.874;4.394;2023-07-02T14:50:53;26.80;1.00
23597;DHT22;40226;50.874;4.394;2023-07-02T14:53:19;26.50;99.90
23597;DHT22;40226;50.874;4.394;2023-07-02T14:55:46;25.70;99.90
23597;DHT22;40226;50.874;4.394;2023-07-02T14:58:13;25.30;99.90
23597;DHT22;40226;50.874;4.394;2023-07-02T15:00:50;25.00;99.90
23597;DHT22;40226;50.874;4.394;2023-07-02T15:03:17;25.90;99.90
23597;DHT22;40226;50.874;4.394;2023-07-02T15:05:45;25.90;99.90
23597;DHT22;40226;50.874;4.394;2023-07-02T15:08:11;26.50;99.90
23597;DHT22;40226;50.874;4.394;2023-07-02T15:10:50;26.30;99.90
23597;DHT22;40226;50.874;4.394;2023-07-02T15:13:20;26.00;99.90
23597;DHT22;40226;50.874;4.394;2023-07-02T15:15:48;25.80;99.90
23597;DHT22;40226;50.874;4.394;2023-07-02T15:18:15;25.60;99.90
23597;DHT22;40226;50.874;4.394;2023-07-02T15:20:43;25.70;99.90
23597;DHT22;40226;50.874;4.394;2023-07-02T15:23:10;25.30;99.90
23597;DHT22;40226;50.874;4.394;2023-07-02T15:25:36;25.60;99.90
23597;DHT22;40226;50.874;4.394;2023-07-02T15:28:02;25.40;99.90
23597;DHT22;40226;50.874;4.394;2023-07-02T15:30:29;25.00;99.90
23597;DHT22;40226;50.874;4.394;2023-07-02T15:32:55;24.80;99.90
23597;DHT22;40226;50.874;4.394;2023-07-02T15:35:21;24.70;99.90